Time;durP1;ratioP1;P1;durP2;ratioP2;P2;SDS_P1;SDS_P2;PMS_P1;PMS_P2;Temp;Humidity;BMP_temperature;BMP_pressure;BME280_temperature;BME280_humidity;BME280_pressure;Samples;Min_cycle;Max_cycle;Signal;HPM_P1;HPM_P2
2023/09/16 00:00:33;;;;;;;1999.90;999.90;;;14.60;99.90;;;;;;5101872;28;20476;-81
2023/09/16 00:03:03;;;;;;;1999.90;999.90;;;14.50;99.90;;;;;;5099914;28;20036;-82
2023/09/16 00:05:29;;;;;;;1999.90;999.90;;;14.50;99.90;;;;;;5102241;28;20029;-82
2023/09/16 00:07:55;;;;;;;1999.90;999.90;;;14.60;99.90;;;;;;5100064;28;20047;-81
2023/09/16 00:10:20;;;;;;;1999.90;999.90;;;14.60;99.90;;;;;;5100574;28;20085;-81
2023/09/16 00:12:46;;;;;;;1999.90;999.90;;;14.40;99.90;;;;;;5100856;28;20070;-81
2023/09/16 00:15:12;;;;;;;1999.90;999.90;;;14.60;99.90;;;;;;5101067;28;20406;-82
2023/09/16 00:17:38;;;;;;;1999.90;999.90;;;14.40;99.90;;;;;;5101382;28;20059;-81
2023/09/16 00:20:25;;;;;;;1999.90;999.90;;;14.50;99.90;;;;;;5100975;28;20032;-81
2023/09/16 00:22:51;;;;;;;1999.90;999.90;;;14.40;99.90;;;;;;5101280;28;20123;-82
2023/09/16 00:25:17;;;;;;;1999.90;999.90;;;14.50;99.90;;;;;;5101980;28;20088;-81
2023/09/16 00:27:43;;;;;;;1999.90;999.90;;;14.50;99.90;;;;;;5103456;28;20032;-82
2023/09/16 00:30:09;;;;;;;1999.90;999.90;;;14.40;99.90;;;;;;5101975;28;20024;-81
2023/09/16 00:32:35;;;;;;;1999.90;999.90;;;14.50;99.90;;;;;;5101147;28;20044;-82
2023/09/16 00:35:02;;;;;;;1999.90;999.90;;;14.60;99.90;;;;;;5094038;28;20036;-81
2023/09/16 00:37:28;;;;;;;1999.90;999.90;;;14.40;99.90;;;;;;5094026;28;20070;-82
2023/09/16 00:39:54;;;;;;;1999.90;999.90;;;14.40;99.90;;;;;;5093883;28;20039;-81
2023/09/16 00:42:20;;;;;;;1999.90;999.90;;;14.30;99.90;;;;;;5095146;28;20048;-82
2023/09/16 00:44:46;;;;;;;1999.90;999.90;;;14.40;99.90;;;;;;5093723;28;20033;-81
2023/09/16 00:47:12;;;;;;;1999.90;999.90;;;14.40;99.90;;;;;;5093508;28;20037;-82
2023/09/16 00:49:38;;;;;;;1999.90;999.90;;;14.40;99.90;;;;;;5095415;28;20031;-82
2023/09/16 00:52:04;;;;;;;1999.90;999.90;;;14.40;99.90;;;;;;5095142;28;20037;-82
2023/09/16 00:54:30;;;;;;;1999.90;999.90;;;14.40;99.90;;;;;;5093908;28;20028;-81
2023/09/16 00:56:58;;;;;;;1999.90;999.90;;;14.40;99.90;;;;;;5093584;28;20036;-82
2023/09/16 00:59:25;;;;;;;1999.90;999.90;;;14.40;99.90;;;;;;5094008;28;20024;-82
2023/09/16 01:01:53;;;;;;;1999.90;999.90;;;14.30;99.90;;;;;;5093859;28;20064;-82
2023/09/16 01:04:22;;;;;;;1999.90;999.90;;;14.40;99.90;;;;;;5095072;28;20108;-81
2023/09/16 01:06:50;;;;;;;1999.90;999.90;;;14.30;99.90;;;;;;5093477;28;20040;-82
2023/09/16 01:09:17;;;;;;;1999.90;999.90;;;14.20;99.90;;;;;;5093706;28;20037;-82
2023/09/16 01:11:43;;;;;;;1999.90;999.90;;;14.20;99.90;;;;;;5093640;28;20047;-82
2023/09/16 01:14:13;;;;;;;1999.90;999.90;;;14.20;99.90;;;;;;5093776;28;20028;-82
2023/09/16 01:16:48;;;;;;;1999.90;999.90;;;14.10;99.90;;;;;;5093535;28;20129;-82
2023/09/16 01:19:22;;;;;;;1999.90;999.90;;;14.20;99.90;;;;;;5095261;28;20510;-82
2023/09/16 01:21:48;;;;;;;1999.90;999.90;;;14.10;99.90;;;;;;5093826;28;20117;-82
2023/09/16 01:24:19;;;;;;;1999.90;999.90;;;14.10;99.90;;;;;;5095345;28;20111;-82
2023/09/16 01:26:45;;;;;;;1999.90;999.90;;;14.10;99.90;;;;;;5095149;28;20754;-82
2023/09/16 01:29:11;;;;;;;1999.90;999.90;;;14.10;99.90;;;;;;5095161;28;20567;-82
2023/09/16 01:31:38;;;;;;;1999.90;999.90;;;14.10;99.90;;;;;;5093856;28;20124;-82
2023/09/16 01:34:27;;;;;;;1999.90;999.90;;;14.10;99.90;;;;;;5095218;28;20032;-82
2023/09/16 01:36:57;;;;;;;1999.90;999.90;;;14.00;99.90;;;;;;5095477;28;20052;-82
2023/09/16 01:39:24;;;;;;;1999.90;999.90;;;14.10;99.90;;;;;;5093679;28;20036;-82
2023/09/16 01:41:52;;;;;;;1999.90;999.90;;;14.10;99.90;;;;;;5095358;28;20037;-82
2023/09/16 01:44:17;;;;;;;1999.90;999.90;;;14.00;99.90;;;;;;5095781;28;20406;-82
2023/09/16 01:46:43;;;;;;;1999.90;999.90;;;14.00;99.90;;;;;;5097431;28;20036;-82
2023/09/16 01:49:09;;;;;;;1999.90;999.90;;;14.00;99.90;;;;;;5096956;28;20059;-82
2023/09/16 01:51:34;;;;;;;1999.90;999.90;;;13.90;99.90;;;;;;5097773;28;20037;-81
2023/09/16 01:54:00;;;;;;;1999.90;999.90;;;13.90;99.90;;;;;;5096551;28;20028;-81
2023/09/16 01:56:25;;;;;;;1999.90;999.90;;;13.90;99.90;;;;;;5099318;28;20036;-81
2023/09/16 01:58:51;;;;;;;1999.90;999.90;;;13.90;99.90;;;;;;5097676;28;20359;-82
2023/09/16 02:01:16;;;;;;;1999.90;999.90;;;13.80;99.90;;;;;;5097974;28;20106;-81
2023/09/16 02:03:42;;;;;;;1999.90;999.90;;;13.90;99.90;;;;;;5097597;28;20445;-81
2023/09/16 02:06:07;;;;;;;1999.90;999.90;;;13.70;99.90;;;;;;5097911;28;20064;-82
2023/09/16 02:08:33;;;;;;;1999.90;999.90;;;13.80;99.90;;;;;;5098071;28;20056;-82
2023/09/16 02:10:59;;;;;;;1999.90;999.90;;;13.80;99.90;;;;;;5098293;28;20028;-82
2023/09/16 02:13:24;;;;;;;1999.90;999.90;;;13.70;99.90;;;;;;5098175;28;20036;-82
2023/09/16 02:15:50;;;;;;;1999.90;999.90;;;13.70;99.90;;;;;;5100006;28;20033;-82
2023/09/16 02:18:15;;;;;;;1999.90;999.90;;;13.60;99.90;;;;;;5099746;28;20051;-82
2023/09/16 02:20:41;;;;;;;1999.90;999.90;;;13.60;99.90;;;;;;5100621;28;20081;-81
2023/09/16 02:23:07;;;;;;;1999.90;999.90;;;13.60;99.90;;;;;;5098386;28;20089;-81
2023/09/16 02:25:33;;;;;;;1999.90;999.90;;;13.60;99.90;;;;;;5098465;28;20025;-81
2023/09/16 02:27:59;;;;;;;1999.90;999.90;;;13.60;99.90;;;;;;5098745;28;20584;-82
2023/09/16 02:30:24;;;;;;;1999.90;999.90;;;13.60;99.90;;;;;;5100453;28;20072;-81
2023/09/16 02:32:51;;;;;;;1999.90;999.90;;;13.60;99.90;;;;;;5100980;28;20406;-81
2023/09/16 02:35:16;;;;;;;1999.90;999.90;;;13.60;99.90;;;;;;5099729;28;20021;-81
2023/09/16 02:37:42;;;;;;;1999.90;999.90;;;13.50;99.90;;;;;;5100822;28;20032;-81
2023/09/16 02:40:07;;;;;;;1999.90;999.90;;;13.40;99.90;;;;;;5099462;28;20036;-82
2023/09/16 02:42:33;;;;;;;1999.90;999.90;;;13.40;99.90;;;;;;5100274;28;20040;-81
2023/09/16 02:44:59;;;;;;;1999.90;999.90;;;13.50;99.90;;;;;;5102002;28;20090;-81
2023/09/16 02:47:25;;;;;;;1999.90;999.90;;;13.40;99.90;;;;;;5100168;28;20079;-81
2023/09/16 02:49:50;;;;;;;1999.90;999.90;;;13.40;99.90;;;;;;5100423;28;20032;-81
2023/09/16 02:52:16;;;;;;;1999.90;999.90;;;13.40;99.90;;;;;;5101797;28;20060;-81
2023/09/16 02:54:42;;;;;;;1999.90;999.90;;;13.40;99.90;;;;;;5099725;28;20032;-82
2023/09/16 02:57:08;;;;;;;1999.90;999.90;;;13.50;99.90;;;;;;5101360;28;20088;-82
2023/09/16 02:59:34;;;;;;;1999.90;999.90;;;13.50;99.90;;;;;;5101456;28;20084;-81
2023/09/16 03:01:59;;;;;;;1999.90;999.90;;;13.50;99.90;;;;;;5102919;28;20119;-82
2023/09/16 03:04:25;;;;;;;1999.90;999.90;;;13.50;99.90;;;;;;5102845;28;20394;-81
2023/09/16 03:06:52;;;;;;;1999.90;999.90;;;13.50;99.90;;;;;;5101229;28;20037;-81
2023/09/16 03:09:19;;;;;;;1999.90;999.90;;;13.60;99.90;;;;;;5101830;28;20009;-81
2023/09/16 03:11:45;;;;;;;1999.90;999.90;;;13.60;99.90;;;;;;5102106;28;20024;-81
2023/09/16 03:14:11;;;;;;;1999.90;999.90;;;13.50;99.90;;;;;;5103513;28;20025;-81
2023/09/16 03:16:37;;;;;;;1999.90;999.90;;;13.50;99.90;;;;;;5104131;28;20482;-81
2023/09/16 03:19:03;;;;;;;1999.90;999.90;;;13.50;99.90;;;;;;5104934;28;20037;-81
2023/09/16 03:21:29;;;;;;;1999.90;999.90;;;13.50;99.90;;;;;;5102038;28;20028;-81
2023/09/16 03:23:54;;;;;;;1999.90;999.90;;;13.50;99.90;;;;;;5103046;28;20115;-81
2023/09/16 03:26:20;;;;;;;1999.90;999.90;;;13.60;99.90;;;;;;5102423;28;20079;-81
2023/09/16 03:28:47;;;;;;;1999.90;999.90;;;13.50;99.90;;;;;;5095050;28;20032;-81
2023/09/16 03:31:14;;;;;;;1999.90;999.90;;;13.40;99.90;;;;;;5096409;28;20032;-81
2023/09/16 03:33:39;;;;;;;1999.90;999.90;;;13.50;99.90;;;;;;5096333;28;20052;-81
2023/09/16 03:36:05;;;;;;;1999.90;999.90;;;13.40;99.90;;;;;;5096061;28;20067;-82
2023/09/16 03:38:32;;;;;;;1999.90;999.90;;;13.50;99.90;;;;;;5094903;28;20032;-81
2023/09/16 03:40:58;;;;;;;1999.90;999.90;;;13.40;99.90;;;;;;5094821;28;20032;-81
2023/09/16 03:43:24;;;;;;;1999.90;999.90;;;13.40;99.90;;;;;;5094805;28;20036;-81
2023/09/16 03:45:50;;;;;;;1999.90;999.90;;;13.40;99.90;;;;;;5096280;28;20028;-81
2023/09/16 03:48:16;;;;;;;1999.90;999.90;;;13.40;99.90;;;;;;5096218;28;20478;-81
2023/09/16 03:50:41;;;;;;;1999.90;999.90;;;13.40;99.90;;;;;;5094740;28;20028;-81
2023/09/16 03:53:07;;;;;;;1999.90;999.90;;;13.30;99.90;;;;;;5095674;28;20123;-81
2023/09/16 03:55:34;;;;;;;1999.90;999.90;;;13.30;99.90;;;;;;5096526;28;20028;-81
2023/09/16 03:58:02;;;;;;;1999.90;999.90;;;13.20;99.90;;;;;;5094679;28;20039;-81
2023/09/16 04:00:28;;;;;;;1999.90;999.90;;;13.30;99.90;;;;;;5095930;28;20024;-81
2023/09/16 04:02:54;;;;;;;1999.90;999.90;;;13.40;99.90;;;;;;5094475;28;20037;-81
2023/09/16 04:05:19;;;;;;;1999.90;999.90;;;13.30;99.90;;;;;;5096356;28;20037;-81
2023/09/16 04:07:46;;;;;;;1999.90;999.90;;;13.30;99.90;;;;;;5094076;28;20044;-81
2023/09/16 04:10:11;;;;;;;1999.90;999.90;;;13.30;99.90;;;;;;5096625;28;20036;-82
2023/09/16 04:12:37;;;;;;;1999.90;999.90;;;13.30;99.90;;;;;;5096358;28;20044;-81
2023/09/16 04:15:03;;;;;;;1999.90;999.90;;;13.40;99.90;;;;;;5094737;28;20029;-81
2023/09/16 04:17:28;;;;;;;1999.90;999.90;;;13.40;99.90;;;;;;5094723;28;20033;-81
2023/09/16 04:19:54;;;;;;;1999.90;999.90;;;13.50;99.90;;;;;;5094557;28;20039;-81
2023/09/16 04:22:20;;;;;;;1999.90;999.90;;;13.40;99.90;;;;;;5094923;28;20032;-81
2023/09/16 04:24:46;;;;;;;1999.90;999.90;;;13.40;99.90;;;;;;5094311;28;20463;-81
2023/09/16 04:27:12;;;;;;;1999.90;999.90;;;13.50;99.90;;;;;;5094368;28;20036;-81
2023/09/16 04:29:37;;;;;;;1999.90;999.90;;;13.50;99.90;;;;;;5094749;28;20143;-81
2023/09/16 04:32:03;;;;;;;1999.90;999.90;;;13.40;99.90;;;;;;5095052;28;20474;-81
2023/09/16 04:34:29;;;;;;;1999.90;999.90;;;13.40;99.90;;;;;;5095463;28;20033;-81
2023/09/16 04:36:55;;;;;;;1999.90;999.90;;;13.40;99.90;;;;;;5094425;28;20086;-81
2023/09/16 04:39:23;;;;;;;1999.90;999.90;;;13.40;99.90;;;;;;5095316;28;20032;-82
2023/09/16 04:41:56;;;;;;;1999.90;999.90;;;13.40;99.90;;;;;;5095141;28;20037;-81
2023/09/16 04:44:23;;;;;;;1999.90;999.90;;;13.40;99.90;;;;;;5096734;28;20620;-81
2023/09/16 04:46:49;;;;;;;1999.90;999.90;;;13.30;99.90;;;;;;5096782;28;20078;-81
2023/09/16 04:49:14;;;;;;;1999.90;999.90;;;13.40;99.90;;;;;;5095592;28;20032;-82
2023/09/16 04:51:40;;;;;;;1999.90;999.90;;;13.30;99.90;;;;;;5095283;28;20478;-81
2023/09/16 04:54:07;;;;;;;1999.90;999.90;;;13.30;99.90;;;;;;5094665;28;20037;-82
2023/09/16 04:56:34;;;;;;;1999.90;999.90;;;13.30;99.90;;;;;;5095282;28;20063;-82
2023/09/16 04:59:00;;;;;;;1999.90;999.90;;;13.40;99.90;;;;;;5095393;28;20036;-81
2023/09/16 05:01:27;;;;;;;1999.90;999.90;;;13.30;99.90;;;;;;5095441;28;20041;-82
2023/09/16 05:03:52;;;;;;;1999.90;999.90;;;13.20;99.90;;;;;;5095066;28;20494;-82
2023/09/16 05:06:18;;;;;;;1999.90;999.90;;;13.20;99.90;;;;;;5095660;28;20040;-81
2023/09/16 05:08:43;;;;;;;1999.90;999.90;;;13.10;99.90;;;;;;5095721;28;20039;-81
2023/09/16 05:11:09;;;;;;;1999.90;999.90;;;13.20;99.90;;;;;;5096033;28;20099;-81
2023/09/16 05:13:35;;;;;;;1999.90;999.90;;;13.20;99.90;;;;;;5095985;28;20033;-81
2023/09/16 05:16:01;;;;;;;1999.90;999.90;;;13.20;99.90;;;;;;5095573;28;20040;-81
2023/09/16 05:18:26;;;;;;;1999.90;999.90;;;13.10;99.90;;;;;;5096683;28;20107;-81
2023/09/16 05:20:52;;;;;;;1999.90;999.90;;;13.10;99.90;;;;;;5101023;28;20393;-81
2023/09/16 05:23:18;;;;;;;1999.90;999.90;;;13.10;99.90;;;;;;5102205;28;20537;-81
2023/09/16 05:25:45;;;;;;;1999.90;999.90;;;13.20;99.90;;;;;;5101833;28;20508;-82
2023/09/16 05:28:11;;;;;;;1999.90;999.90;;;13.20;99.90;;;;;;5100140;28;20118;-81
2023/09/16 05:30:36;;;;;;;1999.90;999.90;;;13.10;99.90;;;;;;5102162;28;20067;-81
2023/09/16 05:33:02;;;;;;;1999.90;999.90;;;13.20;99.90;;;;;;5102039;28;20107;-81
2023/09/16 05:35:28;;;;;;;1999.90;999.90;;;13.20;99.90;;;;;;5101031;28;20519;-81
2023/09/16 05:37:53;;;;;;;1999.90;999.90;;;13.20;99.90;;;;;;5100041;28;20040;-81
2023/09/16 05:40:19;;;;;;;1999.90;999.90;;;13.30;99.90;;;;;;5100982;28;20515;-81
2023/09/16 05:42:45;;;;;;;1999.90;999.90;;;13.20;99.90;;;;;;5103101;28;20040;-81
2023/09/16 05:45:11;;;;;;;1999.90;999.90;;;13.30;99.90;;;;;;5101359;28;20033;-81
2023/09/16 05:47:37;;;;;;;1999.90;999.90;;;13.30;99.90;;;;;;5100891;28;20072;-81
2023/09/16 05:50:03;;;;;;;1999.90;999.90;;;13.40;99.90;;;;;;5101930;28;20032;-81
2023/09/16 05:52:28;;;;;;;1999.90;999.90;;;13.40;99.90;;;;;;5101612;28;20040;-81
2023/09/16 05:54:54;;;;;;;1999.90;999.90;;;13.30;99.90;;;;;;5104295;28;20036;-81
2023/09/16 05:57:19;;;;;;;1999.90;999.90;;;13.40;99.90;;;;;;5103211;28;20040;-81
2023/09/16 05:59:45;;;;;;;1999.90;999.90;;;13.40;99.90;;;;;;5102486;28;20036;-81
2023/09/16 06:02:11;;;;;;;1999.90;999.90;;;13.40;99.90;;;;;;5104237;28;20039;-81
2023/09/16 06:04:36;;;;;;;1999.90;999.90;;;13.50;99.90;;;;;;5102593;28;20036;-81
2023/09/16 06:07:02;;;;;;;1999.90;999.90;;;13.60;99.90;;;;;;5102235;28;20529;-81
2023/09/16 06:09:27;;;;;;;1999.90;999.90;;;13.70;99.90;;;;;;5102496;28;20438;-81
2023/09/16 06:11:53;;;;;;;1999.90;999.90;;;13.80;99.90;;;;;;5105544;28;20037;-81
2023/09/16 06:14:19;;;;;;;1999.90;999.90;;;13.80;99.90;;;;;;5104962;28;20040;-81
2023/09/16 06:16:44;;;;;;;1999.90;999.90;;;13.80;99.90;;;;;;5103759;28;20040;-81
2023/09/16 06:19:10;;;;;;;1999.90;999.90;;;13.80;99.90;;;;;;5104881;28;20124;-81
2023/09/16 06:21:36;;;;;;;1999.90;999.90;;;13.90;99.90;;;;;;5101935;28;20048;-81
2023/09/16 06:24:01;;;;;;;1999.90;999.90;;;14.00;99.90;;;;;;5097309;28;20086;-81
2023/09/16 06:26:27;;;;;;;1999.90;999.90;;;14.20;99.90;;;;;;5096968;28;20048;-80
2023/09/16 06:28:53;;;;;;;1999.90;999.90;;;14.20;99.90;;;;;;5097746;28;20032;-81
2023/09/16 06:31:18;;;;;;;1999.90;999.90;;;14.20;99.90;;;;;;5097204;28;20485;-81
2023/09/16 06:33:44;;;;;;;1999.90;999.90;;;14.30;99.90;;;;;;5098154;28;20441;-81
2023/09/16 06:36:10;;;;;;;1999.90;999.90;;;14.40;99.90;;;;;;5096813;28;20482;-81
2023/09/16 06:38:35;;;;;;;1999.90;999.90;;;14.60;99.90;;;;;;5097440;28;20100;-81
2023/09/16 06:41:01;;;;;;;1999.90;999.90;;;14.70;99.90;;;;;;5097445;28;20033;-81
2023/09/16 06:43:26;;;;;;;1999.90;999.90;;;14.80;99.90;;;;;;5095555;28;20077;-81
2023/09/16 06:45:52;;;;;;;1999.90;999.90;;;14.90;99.90;;;;;;5096025;28;20075;-81
2023/09/16 06:48:17;;;;;;;1999.90;999.90;;;15.00;99.90;;;;;;5096064;28;20037;-83
2023/09/16 06:50:43;;;;;;;1999.90;999.90;;;15.00;99.90;;;;;;5096290;28;20411;-82
2023/09/16 06:53:09;;;;;;;1999.90;999.90;;;15.20;99.90;;;;;;5097808;28;20101;-82
2023/09/16 06:55:34;;;;;;;1999.90;999.90;;;15.30;99.90;;;;;;5097544;28;20544;-83
2023/09/16 06:58:04;;;;;;;1999.90;999.90;;;15.40;99.90;;;;;;5097542;28;20033;-83
2023/09/16 07:00:33;;;;;;;1999.90;999.90;;;15.50;99.90;;;;;;5096390;28;20488;-82
2023/09/16 07:02:58;;;;;;;1999.90;999.90;;;15.60;99.90;;;;;;5098506;28;20141;-81
2023/09/16 07:05:24;;;;;;;1999.90;999.90;;;15.80;99.90;;;;;;5097261;28;20556;-82
2023/09/16 07:07:52;;;;;;;1999.90;999.90;;;15.80;99.90;;;;;;5095068;28;20087;-80
2023/09/16 07:10:19;;;;;;;1999.90;999.90;;;15.90;99.90;;;;;;5095126;28;20060;-80
2023/09/16 07:12:44;;;;;;;1999.90;999.90;;;16.00;99.90;;;;;;5095514;28;20090;-80
2023/09/16 07:15:10;;;;;;;1999.90;999.90;;;16.20;99.90;;;;;;5094644;28;20487;-80
2023/09/16 07:17:35;;;;;;;1999.90;999.90;;;16.30;99.90;;;;;;5094554;28;20486;-79
2023/09/16 07:20:01;;;;;;;1999.90;999.90;;;16.50;99.90;;;;;;5093175;28;20033;-80
2023/09/16 07:22:27;;;;;;;1999.90;999.90;;;16.50;99.90;;;;;;5095290;28;20071;-81
2023/09/16 07:24:52;;;;;;;1999.90;999.90;;;16.70;99.90;;;;;;5092928;28;20085;-80
2023/09/16 07:27:18;;;;;;;1999.90;999.90;;;16.80;99.90;;;;;;5094943;28;20047;-80
2023/09/16 07:29:44;;;;;;;1999.90;999.90;;;17.10;99.90;;;;;;5097133;28;20040;-79
2023/09/16 07:32:09;;;;;;;1999.90;999.90;;;17.10;99.90;;;;;;5094809;28;20533;-78
2023/09/16 07:34:35;;;;;;;1999.90;999.90;;;17.40;99.90;;;;;;5094982;28;20029;-79
2023/09/16 07:37:01;;;;;;;1999.90;999.90;;;17.50;99.90;;;;;;5096193;28;20110;-80
2023/09/16 07:39:27;;;;;;;1999.90;999.90;;;17.60;99.90;;;;;;5094891;28;20033;-79
2023/09/16 07:41:53;;;;;;;1999.90;999.90;;;17.80;99.90;;;;;;5094493;28;20040;-79
2023/09/16 07:44:18;;;;;;;1999.90;999.90;;;18.00;99.90;;;;;;5094726;28;20024;-78
2023/09/16 07:46:44;;;;;;;1999.90;999.90;;;18.20;99.90;;;;;;5094494;28;20040;-79
2023/09/16 07:49:09;;;;;;;1999.90;999.90;;;18.30;99.90;;;;;;5095638;28;20047;-82
2023/09/16 07:51:35;;;;;;;1999.90;999.90;;;18.50;99.90;;;;;;5095461;28;20548;-80
2023/09/16 07:54:01;;;;;;;1999.90;999.90;;;18.70;99.90;;;;;;5093504;28;20037;-80
2023/09/16 07:56:28;;;;;;;1999.90;999.90;;;18.90;99.90;;;;;;5094901;28;20042;-81
2023/09/16 07:58:54;;;;;;;1999.90;999.90;;;19.00;99.90;;;;;;5097544;28;20036;-81
2023/09/16 08:01:19;;;;;;;1999.90;999.90;;;19.10;99.90;;;;;;5095655;28;20048;-81
2023/09/16 08:03:45;;;;;;;1999.90;999.90;;;19.30;99.90;;;;;;5096983;28;20052;-82
2023/09/16 08:06:11;;;;;;;1999.90;999.90;;;19.40;99.90;;;;;;5094657;28;20041;-81
2023/09/16 08:08:37;;;;;;;1999.90;999.90;;;19.50;99.90;;;;;;5095640;28;20507;-82
2023/09/16 08:11:03;;;;;;;1999.90;999.90;;;19.60;99.90;;;;;;5094712;28;20036;-80
2023/09/16 08:13:28;;;;;;;1999.90;999.90;;;19.80;99.90;;;;;;5095871;28;20044;-79
2023/09/16 08:15:54;;;;;;;1999.90;999.90;;;19.90;99.90;;;;;;5096815;28;20030;-77
2023/09/16 08:18:20;;;;;;;1999.90;999.90;;;20.10;99.90;;;;;;5096991;28;20036;-79
2023/09/16 08:20:45;;;;;;;1999.90;999.90;;;20.20;99.90;;;;;;5095334;28;20072;-79
2023/09/16 08:23:13;;;;;;;1999.90;999.90;;;20.20;99.90;;;;;;5095553;28;20024;-77
2023/09/16 08:25:38;;;;;;;1999.90;999.90;;;20.50;99.90;;;;;;5094519;28;20490;-80
2023/09/16 08:28:04;;;;;;;1999.90;999.90;;;20.60;99.90;;;;;;5097743;28;20045;-80
2023/09/16 08:30:30;;;;;;;1999.90;999.90;;;20.80;99.90;;;;;;5097533;28;20041;-80
2023/09/16 08:32:55;;;;;;;1999.90;999.90;;;20.90;99.90;;;;;;5093928;28;20408;-79
2023/09/16 08:35:25;;;;;;;1999.90;999.90;;;21.10;99.90;;;;;;5093154;28;20062;-78
2023/09/16 08:37:50;;;;;;;1999.90;999.90;;;21.20;99.90;;;;;;5095354;28;20028;-78
2023/09/16 08:40:17;;;;;;;1999.90;999.90;;;21.30;99.90;;;;;;5094364;28;20037;-78
2023/09/16 08:43:03;;;;;;;1999.90;999.90;;;21.40;99.90;;;;;;5095545;28;20033;-78
2023/09/16 08:45:32;;;;;;;1999.90;999.90;;;21.60;99.90;;;;;;5076812;28;20036;-78
2023/09/16 08:48:01;;;;;;;1999.90;999.90;;;21.70;99.90;;;;;;5093022;28;20064;-78
2023/09/16 08:50:30;;;;;;;1999.90;999.90;;;21.80;99.90;;;;;;5093864;28;20115;-77
2023/09/16 08:53:02;;;;;;;1999.90;999.90;;;22.10;99.90;;;;;;5094089;28;20037;-78
2023/09/16 08:55:27;;;;;;;1999.90;999.90;;;22.20;99.90;;;;;;5095707;28;20504;-82
2023/09/16 08:58:08;;;;;;;1999.90;999.90;;;22.30;99.90;;;;;;5096695;28;20047;-78
2023/09/16 09:00:36;;;;;;;1999.90;999.90;;;22.30;99.90;;;;;;5096812;28;20036;-78
2023/09/16 09:03:02;;;;;;;1999.90;999.90;;;22.50;99.90;;;;;;5088564;28;20061;-78
2023/09/16 09:05:28;;;;;;;1999.90;999.90;;;22.60;99.90;;;;;;5086347;28;20557;-79
2023/09/16 09:07:54;;;;;;;1999.90;999.90;;;22.70;99.90;;;;;;5101512;28;20068;-81
2023/09/16 09:10:19;;;;;;;1999.90;999.90;;;22.80;99.90;;;;;;5101159;28;20520;-82
2023/09/16 09:12:45;;;;;;;1999.90;999.90;;;22.80;99.90;;;;;;5096613;28;20082;-80
2023/09/16 09:15:12;;;;;;;1999.90;999.90;;;22.90;99.90;;;;;;5098128;28;20060;-78
2023/09/16 09:17:45;;;;;;;1999.90;999.90;;;23.00;99.90;;;;;;5096173;28;20072;-80
2023/09/16 09:20:18;;;;;;;1999.90;999.90;;;23.10;99.90;;;;;;5098084;28;20032;-78
2023/09/16 09:22:45;;;;;;;1999.90;999.90;;;23.00;99.90;;;;;;5097851;28;20115;-78
2023/09/16 09:25:11;;;;;;;1999.90;999.90;;;23.10;99.90;;;;;;5097840;28;20037;-78
2023/09/16 09:27:36;;;;;;;1999.90;999.90;;;23.20;99.90;;;;;;5098044;28;20036;-80
2023/09/16 09:30:04;;;;;;;1999.90;999.90;;;23.40;99.90;;;;;;5097536;28;20509;-79
2023/09/16 09:32:31;;;;;;;1999.90;999.90;;;23.40;99.90;;;;;;5096732;28;20029;-81
2023/09/16 09:34:57;;;;;;;1999.90;999.90;;;23.40;99.90;;;;;;5096738;28;20033;-80
2023/09/16 09:37:24;;;;;;;1999.90;999.90;;;23.50;99.90;;;;;;5096610;28;20048;-78
2023/09/16 09:40:08;;;;;;;1999.90;999.90;;;23.70;99.90;;;;;;5096711;28;20082;-79
2023/09/16 09:42:41;;;;;;;1999.90;999.90;;;23.80;99.90;;;;;;5096684;28;20465;-79
2023/09/16 09:45:08;;;;;;;1999.90;999.90;;;23.90;99.90;;;;;;5097970;28;20090;-79
2023/09/16 09:47:34;;;;;;;1999.90;999.90;;;23.80;99.90;;;;;;5093310;28;20047;-79
2023/09/16 09:50:01;;;;;;;1999.90;999.90;;;24.00;99.90;;;;;;5086895;28;20067;-81
2023/09/16 09:52:26;;;;;;;1999.90;999.90;;;24.20;99.90;;;;;;5109605;28;20037;-81
2023/09/16 09:54:53;;;;;;;1999.90;999.90;;;24.20;99.90;;;;;;5095209;28;20032;-80
2023/09/16 09:57:19;;;;;;;1999.90;999.90;;;24.30;99.90;;;;;;5094691;28;20521;-83
2023/09/16 09:59:45;;;;;;;1999.90;999.90;;;24.50;99.90;;;;;;5082906;28;20033;-82
2023/09/16 10:02:11;;;;;;;1999.90;999.90;;;24.60;99.90;;;;;;5077344;28;20640;-82
2023/09/16 10:04:37;;;;;;;1999.90;999.90;;;24.60;99.90;;;;;;5075571;28;20072;-81
2023/09/16 10:07:04;;;;;;;1999.90;999.90;;;24.40;99.90;;;;;;5075091;28;20040;-80
2023/09/16 10:09:30;;;;;;;1999.90;999.90;;;24.50;99.90;;;;;;5077369;28;20039;-82
2023/09/16 10:11:55;;;;;;;1999.90;999.90;;;24.50;99.90;;;;;;5075850;28;20039;-81
2023/09/16 10:14:22;;;;;;;1999.90;999.90;;;24.50;99.90;;;;;;5076934;28;20037;-82
2023/09/16 10:16:47;;;;;;;1999.90;999.90;;;24.70;99.90;;;;;;5074001;28;20029;-82
2023/09/16 10:19:14;;;;;;;1999.90;999.90;;;24.80;99.90;;;;;;5075483;28;20036;-81
2023/09/16 10:21:40;;;;;;;1999.90;999.90;;;24.70;99.90;;;;;;5095000;28;20571;-80
2023/09/16 10:24:08;;;;;;;1999.90;999.90;;;25.00;99.90;;;;;;5095015;28;20036;-84
2023/09/16 10:26:34;;;;;;;1999.90;999.90;;;25.20;99.90;;;;;;5093278;28;20029;-83
2023/09/16 10:29:00;;;;;;;1999.90;999.90;;;25.40;99.90;;;;;;5094711;28;20037;-82
2023/09/16 10:31:27;;;;;;;1999.90;999.90;;;25.60;99.90;;;;;;5094526;28;20520;-84
2023/09/16 10:33:53;;;;;;;1999.90;999.90;;;25.80;99.90;;;;;;5096363;28;20033;-84
2023/09/16 10:36:21;;;;;;;1999.90;999.90;;;26.00;99.90;;;;;;5094726;28;20510;-83
2023/09/16 10:38:47;;;;;;;1999.90;999.90;;;26.30;99.90;;;;;;5093516;28;20045;-83
2023/09/16 10:41:16;;;;;;;1999.90;999.90;;;26.30;99.90;;;;;;5094690;28;20540;-82
2023/09/16 10:43:44;;;;;;;1999.90;999.90;;;26.00;99.90;;;;;;5095804;28;20047;-84
2023/09/16 10:46:10;;;;;;;1999.90;999.90;;;26.00;99.90;;;;;;5095767;28;20024;-83
2023/09/16 10:48:36;;;;;;;1999.90;999.90;;;26.20;99.90;;;;;;5094644;28;20094;-83
2023/09/16 10:51:06;;;;;;;1999.90;999.90;;;26.40;99.90;;;;;;5094087;28;20082;-83
2023/09/16 10:53:36;;;;;;;1999.90;999.90;;;26.40;99.90;;;;;;5094872;28;20036;-83
2023/09/16 10:56:16;;;;;;;1999.90;999.90;;;26.50;99.90;;;;;;5094255;28;20494;-84
2023/09/16 10:58:48;;;;;;;1999.90;999.90;;;26.40;99.90;;;;;;5094181;28;20525;-83
2023/09/16 11:01:26;;;;;;;1999.90;999.90;;;26.60;99.90;;;;;;5094479;28;20036;-83
2023/09/16 11:03:55;;;;;;;1999.90;999.90;;;26.60;99.90;;;;;;5098960;28;20033;-83
2023/09/16 11:06:20;;;;;;;1999.90;999.90;;;26.70;99.90;;;;;;5094281;28;20037;-82
2023/09/16 11:08:47;;;;;;;1999.90;999.90;;;26.90;99.90;;;;;;5094622;28;20507;-84
2023/09/16 11:11:13;;;;;;;1999.90;999.90;;;26.90;99.90;;;;;;5094356;28;20029;-83
2023/09/16 11:13:39;;;;;;;1999.90;999.90;;;27.00;99.90;;;;;;5093714;28;20032;-83
2023/09/16 11:16:04;;;;;;;1999.90;999.90;;;27.10;99.90;;;;;;5093512;28;20486;-84
2023/09/16 11:18:31;;;;;;;1999.90;999.90;;;27.00;99.00;;;;;;5092954;28;20052;-83
2023/09/16 11:20:57;;;;;;;1999.90;999.90;;;27.00;99.10;;;;;;5096160;28;20036;-84
2023/09/16 11:23:24;;;;;;;1999.90;999.90;;;27.20;99.20;;;;;;5094251;28;20036;-82
2023/09/16 11:25:49;;;;;;;1999.90;999.90;;;27.60;98.80;;;;;;5095608;28;20028;-82
2023/09/16 11:28:18;;;;;;;1999.90;999.90;;;27.70;98.60;;;;;;5095715;28;20044;-83
2023/09/16 11:31:01;;;;;;;1999.90;999.90;;;27.90;97.90;;;;;;5095302;28;20063;-83
2023/09/16 11:33:30;;;;;;;1999.90;999.90;;;28.00;96.70;;;;;;5092157;28;20036;-83
2023/09/16 11:36:12;;;;;;;1999.90;999.90;;;28.00;96.30;;;;;;5094599;28;20036;-82
2023/09/16 11:38:39;;;;;;;1999.90;999.90;;;28.00;96.70;;;;;;5093005;28;20043;-83
2023/09/16 11:41:09;;;;;;;1999.90;999.90;;;28.00;97.00;;;;;;5094490;28;20110;-83
2023/09/16 11:43:39;;;;;;;1999.90;999.90;;;27.90;96.30;;;;;;5088973;28;20028;-83
2023/09/16 11:46:08;;;;;;;1999.90;999.90;;;28.10;96.30;;;;;;5092052;28;20067;-83
2023/09/16 11:48:48;;;;;;;1999.90;999.90;;;28.10;96.10;;;;;;5095452;28;20032;-84
2023/09/16 11:51:16;;;;;;;1999.90;999.90;;;28.30;96.30;;;;;;5093621;28;20032;-84
2023/09/16 11:53:41;;;;;;;1999.90;999.90;;;28.50;95.30;;;;;;5093257;28;20040;-83
2023/09/16 11:56:07;;;;;;;1999.90;999.90;;;28.80;94.50;;;;;;5091869;28;20032;-84